createdAt,value
2023-04-19T00:00:39.171Z,2.40
2023-04-19T00:03:08.015Z,3.08
2023-04-19T00:05:35.526Z,2.80
2023-04-19T00:08:02.687Z,2.65
2023-04-19T00:10:30.105Z,3.55
2023-04-19T00:12:57.067Z,3.28
2023-04-19T00:15:24.068Z,3.03
2023-04-19T00:17:51.260Z,3.22
2023-04-19T00:20:18.440Z,2.75
2023-04-19T00:22:45.340Z,2.80
2023-04-19T00:25:12.535Z,2.42
2023-04-19T00:27:39.604Z,2.72
2023-04-19T00:30:07.613Z,2.88
2023-04-19T00:32:34.679Z,2.92
2023-04-19T00:35:01.725Z,2.88
2023-04-19T00:37:29.515Z,2.88
2023-04-19T00:39:56.605Z,2.65
2023-04-19T00:42:23.655Z,2.60
2023-04-19T00:44:50.874Z,2.97
2023-04-19T00:47:18.190Z,2.10
2023-04-19T00:49:46.225Z,2.70
2023-04-19T00:52:13.638Z,2.97
2023-04-19T00:54:42.545Z,2.53
2023-04-19T00:57:09.723Z,2.40
2023-04-19T00:59:37.285Z,2.28
2023-04-19T01:02:04.401Z,2.70
2023-04-19T01:04:31.662Z,3.65
2023-04-19T01:06:59.294Z,2.50
2023-04-19T01:09:26.569Z,3.05
2023-04-19T01:11:54.110Z,3.08
2023-04-19T01:14:21.277Z,2.58
2023-04-19T01:16:48.255Z,2.80
2023-04-19T01:19:16.710Z,2.45
2023-04-19T01:21:43.839Z,2.67
2023-04-19T01:24:11.184Z,2.60
2023-04-19T01:26:38.401Z,3.15
2023-04-19T01:29:05.418Z,2.28
2023-04-19T01:31:32.443Z,2.38
2023-04-19T01:33:59.404Z,2.25
2023-04-19T01:36:27.946Z,2.35
2023-04-19T01:38:56.419Z,2.95
2023-04-19T01:41:27.134Z,2.83
2023-04-19T01:43:54.612Z,2.30
2023-04-19T01:46:21.608Z,2.83
2023-04-19T01:48:48.778Z,2.40
2023-04-19T01:51:17.546Z,2.55
2023-04-19T01:53:44.618Z,2.58
2023-04-19T01:56:11.634Z,2.35
2023-04-19T01:58:38.876Z,2.58
2023-04-19T02:01:06.058Z,2.25
2023-04-19T02:03:33.378Z,2.85
2023-04-19T02:06:00.764Z,2.38
2023-04-19T02:08:27.826Z,2.72
2023-04-19T02:10:54.799Z,2.63
2023-04-19T02:13:22.122Z,2.17
2023-04-19T02:15:49.317Z,2.05
2023-04-19T02:18:17.505Z,2.30
2023-04-19T02:20:44.513Z,2.20
2023-04-19T02:23:12.707Z,2.00
2023-04-19T02:25:39.822Z,1.90
2023-04-19T02:28:07.215Z,2.05
2023-04-19T02:30:34.223Z,2.10
2023-04-19T02:33:01.854Z,2.60
2023-04-19T02:35:29.195Z,2.20
2023-04-19T02:38:00.196Z,2.13
2023-04-19T02:40:27.349Z,2.85
2023-04-19T02:42:54.371Z,2.53
2023-04-19T02:45:22.702Z,2.25
2023-04-19T02:47:49.755Z,2.70
2023-04-19T02:50:17.380Z,2.60
2023-04-19T02:52:48.940Z,2.72
2023-04-19T02:55:16.183Z,3.38
2023-04-19T02:57:44.366Z,3.40
2023-04-19T03:00:12.419Z,3.05
2023-04-19T03:02:43.847Z,2.70
2023-04-19T03:05:11.362Z,3.10
2023-04-19T03:07:38.542Z,2.40
2023-04-19T03:10:06.849Z,2.67
2023-04-19T03:12:34.051Z,2.53
2023-04-19T03:15:01.256Z,2.80
2023-04-19T03:17:28.452Z,2.80
2023-04-19T03:19:56.822Z,2.33
2023-04-19T03:22:24.945Z,2.50
2023-04-19T03:24:52.759Z,1.90
2023-04-19T03:27:22.914Z,2.40
2023-04-19T03:29:57.870Z,2.20
2023-04-19T03:32:26.097Z,2.83
2023-04-19T03:34:53.411Z,2.42
2023-04-19T03:37:20.312Z,2.60
2023-04-19T03:39:47.418Z,2.13
2023-04-19T03:42:19.492Z,2.15
2023-04-19T03:45:08.138Z,2.42
2023-04-19T03:47:40.388Z,2.45
2023-04-19T03:50:08.932Z,2.80
2023-04-19T03:52:38.290Z,2.45
2023-04-19T03:55:06.206Z,2.33
2023-04-19T03:57:37.511Z,1.50
2023-04-19T04:00:13.120Z,1.98
2023-04-19T04:02:43.438Z,2.10
2023-04-19T04:05:13.099Z,2.03
2023-04-19T04:07:41.036Z,1.73
2023-04-19T04:10:09.306Z,2.03
2023-04-19T04:12:41.514Z,2.03
2023-04-19T04:15:11.131Z,2.25
2023-04-19T04:17:43.228Z,1.83
2023-04-19T04:20:13.374Z,1.83
2023-04-19T04:22:46.141Z,2.00
2023-04-19T04:25:15.932Z,1.80
2023-04-19T04:27:46.645Z,2.33
2023-04-19T04:30:18.483Z,2.17
2023-04-19T04:32:46.937Z,2.10
2023-04-19T04:35:14.253Z,2.67
2023-04-19T04:37:54.083Z,2.05
2023-04-19T04:40:21.500Z,2.45
2023-04-19T04:42:49.470Z,3.17
2023-04-19T04:45:18.528Z,2.50
2023-04-19T04:47:48.947Z,2.70
2023-04-19T04:50:16.941Z,2.00
2023-04-19T04:52:44.417Z,2.58
2023-04-19T04:55:16.947Z,1.92
2023-04-19T04:57:45.161Z,2.13
2023-04-19T05:00:18.385Z,2.40
2023-04-19T05:02:55.118Z,2.97
2023-04-19T05:05:23.992Z,2.30
2023-04-19T05:07:50.859Z,2.40
2023-04-19T05:10:18.105Z,2.22
2023-04-19T05:12:47.564Z,1.55
2023-04-19T05:15:14.838Z,2.15
2023-04-19T05:17:48.283Z,2.38
2023-04-19T05:20:15.542Z,2.83
2023-04-19T05:22:43.984Z,2.20
2023-04-19T05:25:12.034Z,2.40
2023-04-19T05:27:39.911Z,1.75
2023-04-19T05:30:08.175Z,2.00
2023-04-19T05:32:40.302Z,1.65
2023-04-19T05:35:11.439Z,1.92
2023-04-19T05:37:39.487Z,2.20
2023-04-19T05:40:10.433Z,1.88
2023-04-19T05:42:38.723Z,2.30
2023-04-19T05:45:07.412Z,1.90
2023-04-19T05:47:34.891Z,2.25
2023-04-19T05:50:20.681Z,1.80
2023-04-19T05:53:11.039Z,1.63
2023-04-19T05:55:38.409Z,1.63
2023-04-19T05:58:06.054Z,1.65
2023-04-19T06:00:33.434Z,2.00
2023-04-19T06:03:08.478Z,2.15
2023-04-19T06:05:35.919Z,1.70
2023-04-19T06:08:03.635Z,1.80
2023-04-19T06:10:40.280Z,1.70
2023-04-19T06:13:16.729Z,1.70
2023-04-19T06:15:44.066Z,1.75
2023-04-19T06:18:19.411Z,1.70
2023-04-19T06:20:47.425Z,1.80
2023-04-19T06:23:15.114Z,1.73
2023-04-19T06:25:42.940Z,1.60
2023-04-19T06:28:10.820Z,2.00
2023-04-19T06:30:37.925Z,1.48
2023-04-19T06:33:04.937Z,1.60
2023-04-19T06:35:32.629Z,1.80
2023-04-19T06:37:59.854Z,1.75
2023-04-19T06:40:28.922Z,1.40
2023-04-19T06:42:56.420Z,2.65
2023-04-19T06:45:23.747Z,1.75
2023-04-19T06:47:51.134Z,1.40
2023-04-19T06:50:18.433Z,1.73
2023-04-19T06:52:45.397Z,1.63
2023-04-19T06:55:12.708Z,2.17
2023-04-19T06:57:39.662Z,1.80
2023-04-19T07:00:07.908Z,1.77
2023-04-19T07:02:35.481Z,1.52
2023-04-19T07:05:03.838Z,1.90
2023-04-19T07:07:31.113Z,1.90
2023-04-19T07:09:58.073Z,1.80
2023-04-19T07:12:25.195Z,1.42
2023-04-19T07:14:56.436Z,2.00
2023-04-19T07:17:24.893Z,1.60
2023-04-19T07:19:52.092Z,1.73
2023-04-19T07:22:19.014Z,1.67
2023-04-19T07:24:45.973Z,3.35
2023-04-19T07:27:14.339Z,2.25
2023-04-19T07:29:41.695Z,2.10
2023-04-19T07:32:09.033Z,1.83
2023-04-19T07:34:38.151Z,1.58
2023-04-19T07:37:05.351Z,1.77
2023-04-19T07:39:33.095Z,1.58
2023-04-19T07:42:01.479Z,1.80
2023-04-19T07:44:28.394Z,1.58
2023-04-19T07:46:55.523Z,1.55
2023-04-19T07:49:22.636Z,1.50
2023-04-19T07:51:49.667Z,1.77
2023-04-19T07:54:18.042Z,1.75
2023-04-19T07:56:45.189Z,1.92
2023-04-19T07:59:12.260Z,1.40
2023-04-19T08:01:39.714Z,1.60
2023-04-19T08:04:07.993Z,1.90
2023-04-19T08:06:39.696Z,1.58
2023-04-19T08:09:06.916Z,1.88
2023-04-19T08:11:33.950Z,2.38
2023-04-19T08:17:10.856Z,1.90
2023-04-19T08:19:18.020Z,1.83
2023-04-19T08:21:45.242Z,1.58
2023-04-19T08:24:12.268Z,2.13
2023-04-19T08:26:40.190Z,2.40
2023-04-19T08:29:07.208Z,1.88
2023-04-19T08:31:34.214Z,1.98
2023-04-19T08:34:02.717Z,2.05
2023-04-19T08:36:39.136Z,2.65
2023-04-19T08:39:20.912Z,1.95
2023-04-19T08:42:06.639Z,1.77
2023-04-19T08:44:56.279Z,2.13
2023-04-19T08:47:33.678Z,1.98
2023-04-19T08:50:17.538Z,2.42
2023-04-19T08:52:58.681Z,2.30
2023-04-19T08:55:29.509Z,2.45
2023-04-19T08:57:58.235Z,1.88
2023-04-19T09:00:25.766Z,1.77
2023-04-19T09:02:56.469Z,2.10
2023-04-19T09:05:23.816Z,2.10
2023-04-19T09:07:51.524Z,2.50
2023-04-19T09:10:21.712Z,2.28
2023-04-19T09:13:05.111Z,1.75
2023-04-19T09:15:41.724Z,2.15
2023-04-19T09:18:10.516Z,2.45
2023-04-19T09:20:42.373Z,2.08
2023-04-19T09:23:14.987Z,2.08
2023-04-19T09:26:22.811Z,2.33
2023-04-19T09:29:07.913Z,2.10
2023-04-19T09:31:50.814Z,2.00
2023-04-19T09:34:19.640Z,2.50
2023-04-19T09:36:47.178Z,2.13
2023-04-19T09:39:14.726Z,2.42
2023-04-19T09:41:55.499Z,1.90
2023-04-19T09:46:53.887Z,2.13
2023-04-19T09:49:36.938Z,2.10
2023-04-19T09:52:14.503Z,1.95
2023-04-19T09:54:42.165Z,2.40
2023-04-19T09:57:09.176Z,2.30
2023-04-19T09:59:36.256Z,2.20
2023-04-19T10:02:05.064Z,2.50
2023-04-19T10:04:47.904Z,2.35
2023-04-19T10:07:30.293Z,2.33
2023-04-19T10:10:11.657Z,2.25
2023-04-19T10:15:24.137Z,2.20
2023-04-19T10:17:51.395Z,2.05
2023-04-19T10:20:28.385Z,2.25
2023-04-19T10:22:56.198Z,2.15
2023-04-19T10:25:30.280Z,2.60
2023-04-19T10:27:57.880Z,2.35
2023-04-19T10:30:28.454Z,2.28
2023-04-19T10:32:58.777Z,2.55
2023-04-19T10:35:37.879Z,2.15
2023-04-19T10:38:49.896Z,2.22
2023-04-19T10:41:19.248Z,2.88
2023-04-19T10:43:57.550Z,2.83
2023-04-19T10:46:26.134Z,2.58
2023-04-19T10:49:00.759Z,2.50
2023-04-19T10:51:38.729Z,2.40
2023-04-19T10:54:27.155Z,2.28
2023-04-19T10:57:02.768Z,2.90
2023-04-19T10:59:32.260Z,2.58
2023-04-19T11:02:02.538Z,2.53
2023-04-19T11:04:32.992Z,2.40
2023-04-19T11:07:05.453Z,2.55
2023-04-19T11:09:35.428Z,2.60
2023-04-19T11:12:08.695Z,2.80
2023-04-19T11:15:03.355Z,2.75
2023-04-19T11:17:32.121Z,2.42
2023-04-19T11:20:00.321Z,2.38
2023-04-19T11:22:44.477Z,2.47
2023-04-19T11:25:21.170Z,1.90
2023-04-19T11:27:50.731Z,2.47
2023-04-19T11:30:20.338Z,2.97
2023-04-19T11:32:54.194Z,2.28
2023-04-19T11:35:26.710Z,2.75
2023-04-19T11:37:54.935Z,2.67
2023-04-19T11:40:23.925Z,2.47
2023-04-19T11:43:03.628Z,2.47
2023-04-19T11:45:40.121Z,2.10
2023-04-19T11:48:17.279Z,1.77
2023-04-19T11:50:47.052Z,2.03
2023-04-19T11:53:21.050Z,2.28
2023-04-19T11:56:05.903Z,2.00
2023-04-19T11:58:43.936Z,2.47
2023-04-19T12:01:21.934Z,2.50
2023-04-19T12:03:54.582Z,2.63
2023-04-19T12:06:31.711Z,2.60
2023-04-19T12:08:59.089Z,2.13
2023-04-19T12:11:46.258Z,2.03
2023-04-19T12:14:21.520Z,2.45
2023-04-19T12:17:11.610Z,2.75
2023-04-19T12:19:43.248Z,2.15
2023-04-19T12:22:16.627Z,2.15
2023-04-19T12:24:43.813Z,3.25
2023-04-19T12:27:11.498Z,2.35
2023-04-19T12:29:39.554Z,2.20
2023-04-19T12:32:07.087Z,2.10
2023-04-19T12:34:34.263Z,2.33
2023-04-19T12:37:01.438Z,2.53
2023-04-19T12:39:28.874Z,2.28
2023-04-19T12:41:56.954Z,2.50
2023-04-19T12:44:24.382Z,2.50
2023-04-19T12:46:51.402Z,2.40
2023-04-19T12:49:20.038Z,2.45
2023-04-19T12:51:47.506Z,2.65
2023-04-19T12:54:15.511Z,2.42
2023-04-19T12:56:42.870Z,2.22
2023-04-19T12:59:09.828Z,2.65
2023-04-19T13:01:36.930Z,2.60
2023-04-19T13:04:04.227Z,2.47
2023-04-19T13:06:31.808Z,3.33
2023-04-19T13:09:01.068Z,2.58
2023-04-19T13:13:55.659Z,2.97
2023-04-19T13:16:23.169Z,2.88
2023-04-19T13:18:52.702Z,3.30
2023-04-19T13:21:20.000Z,2.92
2023-04-19T13:23:47.018Z,2.75
2023-04-19T13:26:15.758Z,3.08
2023-04-19T13:28:43.076Z,2.55
2023-04-19T13:31:10.065Z,3.17
2023-04-19T13:33:37.112Z,2.80
2023-04-19T13:36:04.579Z,3.05
2023-04-19T13:38:31.607Z,2.83
2023-04-19T13:40:59.593Z,2.95
2023-04-19T13:43:26.933Z,2.38
2023-04-19T13:45:54.214Z,5.97
2023-04-19T13:48:21.838Z,4.57
2023-04-19T13:50:51.195Z,3.40
2023-04-19T13:53:18.466Z,3.28
2023-04-19T13:55:45.587Z,2.58
2023-04-19T13:58:12.912Z,1.85
2023-04-19T14:00:39.978Z,2.45
2023-04-19T14:03:07.120Z,2.25
2023-04-19T14:05:34.187Z,2.30
2023-04-19T14:08:01.234Z,2.35
2023-04-19T14:10:28.223Z,2.13
2023-04-19T14:12:55.451Z,2.63
2023-04-19T14:15:23.575Z,2.10
2023-04-19T14:17:50.717Z,3.05
2023-04-19T14:20:17.837Z,2.10
2023-04-19T14:22:46.205Z,2.65
2023-04-19T14:25:15.086Z,2.40
2023-04-19T14:27:42.302Z,2.88
2023-04-19T14:30:10.197Z,2.20
2023-04-19T14:32:38.199Z,2.40
2023-04-19T14:35:06.049Z,2.72
2023-04-19T14:37:32.983Z,2.50
2023-04-19T14:40:00.143Z,2.70
2023-04-19T14:42:27.119Z,2.75
2023-04-19T14:44:54.185Z,2.80
2023-04-19T14:47:21.802Z,2.42
2023-04-19T14:49:49.351Z,3.00
2023-04-19T14:52:16.918Z,3.20
2023-04-19T14:54:43.962Z,2.95
2023-04-19T14:57:12.095Z,3.75
2023-04-19T14:59:39.001Z,3.40
2023-04-19T15:02:06.186Z,3.38
2023-04-19T15:04:40.660Z,3.22
2023-04-19T15:07:08.472Z,3.95
2023-04-19T15:09:35.535Z,3.83
2023-04-19T15:12:02.470Z,3.63
2023-04-19T15:14:29.449Z,3.25
2023-04-19T15:16:56.380Z,3.58
2023-04-19T15:19:23.528Z,3.63
2023-04-19T15:21:50.721Z,3.85
2023-04-19T15:24:17.774Z,4.13
2023-04-19T15:26:45.028Z,3.33
2023-04-19T15:29:12.185Z,3.20
2023-04-19T15:31:39.893Z,2.90
2023-04-19T15:34:07.086Z,3.25
2023-04-19T15:36:34.027Z,3.10
2023-04-19T15:39:01.117Z,3.60
2023-04-19T15:41:28.521Z,3.50
2023-04-19T15:43:55.804Z,3.53
2023-04-19T15:46:23.253Z,3.60
2023-04-19T15:48:52.195Z,3.78
2023-04-19T15:51:19.749Z,3.95
2023-04-19T15:53:46.811Z,5.28
2023-04-19T15:56:14.427Z,4.13
2023-04-19T15:58:42.170Z,3.55
2023-04-19T16:01:12.937Z,3.50
2023-04-19T16:03:41.247Z,2.97
2023-04-19T16:06:08.411Z,3.58
2023-04-19T16:08:35.537Z,4.00
2023-04-19T16:11:02.472Z,3.45
2023-04-19T16:13:31.346Z,3.45
2023-04-19T16:15:58.677Z,4.13
2023-04-19T16:18:25.885Z,4.03
2023-04-19T16:20:54.517Z,4.70
2023-04-19T16:23:24.002Z,3.67
2023-04-19T16:25:50.983Z,3.83
2023-04-19T16:28:18.806Z,3.30
2023-04-19T16:30:47.465Z,5.05
2023-04-19T16:33:15.642Z,3.95
2023-04-19T16:35:42.833Z,3.60
2023-04-19T16:38:09.892Z,4.50
2023-04-19T16:40:37.168Z,3.83
2023-04-19T16:43:06.420Z,4.35
2023-04-19T16:45:33.930Z,4.18
2023-04-19T16:48:01.558Z,3.65
2023-04-19T16:50:28.856Z,3.63
2023-04-19T16:52:56.013Z,3.85
2023-04-19T16:55:23.056Z,3.67
2023-04-19T16:57:51.183Z,4.03
2023-04-19T17:00:19.126Z,3.58
2023-04-19T17:02:46.333Z,6.05
2023-04-19T17:05:16.207Z,5.65
2023-04-19T17:07:44.120Z,4.10
2023-04-19T17:10:12.406Z,4.13
2023-04-19T17:12:39.491Z,3.65
2023-04-19T17:15:07.098Z,3.95
2023-04-19T17:17:34.306Z,4.05
2023-04-19T17:20:01.833Z,4.10
2023-04-19T17:22:29.193Z,3.83
2023-04-19T17:24:57.358Z,4.00
2023-04-19T17:27:24.873Z,5.07
2023-04-19T17:29:51.807Z,4.07
2023-04-19T17:32:18.821Z,4.93
2023-04-19T17:34:46.052Z,4.20
2023-04-19T17:37:12.928Z,3.80
2023-04-19T17:39:39.878Z,3.78
2023-04-19T17:42:06.925Z,3.92
2023-04-19T17:44:34.256Z,4.00
2023-04-19T17:47:01.612Z,3.85
2023-04-19T17:49:28.606Z,4.60
2023-04-19T17:51:56.644Z,3.72
2023-04-19T17:54:23.764Z,3.47
2023-04-19T17:56:52.430Z,3.92
2023-04-19T17:59:19.652Z,3.88
2023-04-19T18:01:46.624Z,3.55
2023-04-19T18:04:17.854Z,3.75
2023-04-19T18:06:46.320Z,3.55
2023-04-19T18:09:13.382Z,3.72
2023-04-19T18:11:40.686Z,4.60
2023-04-19T18:14:07.807Z,3.88
2023-04-19T18:16:34.934Z,3.95
2023-04-19T18:19:01.876Z,3.78
2023-04-19T18:21:28.915Z,3.50
2023-04-19T18:23:56.523Z,3.67
2023-04-19T18:26:23.777Z,3.40
2023-04-19T18:28:50.838Z,3.90
2023-04-19T18:31:17.773Z,3.40
2023-04-19T18:33:44.860Z,4.28
2023-04-19T18:36:11.742Z,3.65
2023-04-19T18:38:38.596Z,3.50
2023-04-19T18:41:05.739Z,3.45
2023-04-19T18:43:32.665Z,4.32
2023-04-19T18:46:00.219Z,3.90
2023-04-19T18:48:28.478Z,4.32
2023-04-19T18:50:57.223Z,3.97
2023-04-19T18:53:28.436Z,4.43
2023-04-19T18:55:59.232Z,3.88
2023-04-19T18:58:27.512Z,3.97
2023-04-19T19:00:55.592Z,4.88
2023-04-19T19:03:43.842Z,5.45
2023-04-19T19:06:10.865Z,4.90
2023-04-19T19:08:38.139Z,4.90
2023-04-19T19:11:33.204Z,5.05
2023-04-19T19:13:53.606Z,4.43
2023-04-19T19:16:21.012Z,6.15
2023-04-19T19:18:48.191Z,8.73
2023-04-19T19:21:15.301Z,6.85
2023-04-19T19:23:42.818Z,5.30
2023-04-19T19:26:14.553Z,5.00
2023-04-19T19:28:42.185Z,5.07
2023-04-19T19:31:09.710Z,5.18
2023-04-19T19:36:05.391Z,4.65
2023-04-19T19:38:36.081Z,4.75
2023-04-19T19:43:36.105Z,6.03
2023-04-19T19:46:03.646Z,5.47
2023-04-19T19:48:37.117Z,5.45
2023-04-19T19:51:36.336Z,5.15
2023-04-19T19:53:54.215Z,4.10
2023-04-19T19:56:23.882Z,4.72
2023-04-19T19:58:51.988Z,4.85
2023-04-19T20:01:22.376Z,5.13
2023-04-19T20:03:50.654Z,5.70
2023-04-19T20:07:13.468Z,5.53
2023-04-19T20:13:58.899Z,3.78
2023-04-19T20:16:26.590Z,4.50
2023-04-19T20:18:54.567Z,5.40
2023-04-19T20:21:21.601Z,6.05
2023-04-19T20:23:48.655Z,5.65
2023-04-19T20:26:15.662Z,4.90
2023-04-19T20:28:42.600Z,4.95
2023-04-19T20:31:10.143Z,5.32
2023-04-19T20:33:37.219Z,5.18
2023-04-19T20:36:04.295Z,4.95
2023-04-19T20:38:32.167Z,5.00
2023-04-19T20:40:59.261Z,5.20
2023-04-19T20:43:26.246Z,4.97
2023-04-19T20:45:53.172Z,5.38
2023-04-19T20:48:20.326Z,5.00
2023-04-19T20:50:47.375Z,4.78
2023-04-19T20:53:14.215Z,5.20
2023-04-19T20:55:42.098Z,4.78
2023-04-19T20:58:10.085Z,5.22
2023-04-19T21:00:37.073Z,4.90
2023-04-19T21:03:06.619Z,4.68
2023-04-19T21:05:35.114Z,5.15
2023-04-19T21:08:03.125Z,5.13
2023-04-19T21:10:30.253Z,5.07
2023-04-19T21:12:57.242Z,5.13
2023-04-19T21:15:24.265Z,5.72
2023-04-19T21:17:51.416Z,5.10
2023-04-19T21:20:18.370Z,4.97
2023-04-19T21:22:47.167Z,5.68
2023-04-19T21:25:14.313Z,5.68
2023-04-19T21:27:42.190Z,4.90
2023-04-19T21:30:10.482Z,5.65
2023-04-19T21:32:37.500Z,4.63
2023-04-19T21:35:04.940Z,5.75
2023-04-19T21:37:32.074Z,5.70
2023-04-19T21:39:59.034Z,4.95
2023-04-19T21:42:26.140Z,5.78
2023-04-19T21:44:53.040Z,5.65
2023-04-19T21:47:20.125Z,6.40
2023-04-19T21:49:47.180Z,6.20
2023-04-19T21:52:14.264Z,6.20
2023-04-19T21:54:41.608Z,6.20
2023-04-19T21:57:08.956Z,5.93
2023-04-19T21:59:36.700Z,6.10
2023-04-19T22:02:03.988Z,6.43
2023-04-19T22:04:31.719Z,5.82
2023-04-19T22:07:02.785Z,5.80
2023-04-19T22:09:30.698Z,5.65
2023-04-19T22:11:57.782Z,5.65
2023-04-19T22:14:24.743Z,5.63
2023-04-19T22:16:53.735Z,5.78
2023-04-19T22:19:21.103Z,5.70
2023-04-19T22:21:48.368Z,5.93
2023-04-19T22:24:15.750Z,6.18
2023-04-19T22:26:42.722Z,5.97
2023-04-19T22:29:09.764Z,5.50
2023-04-19T22:31:36.880Z,5.13
2023-04-19T22:34:03.872Z,5.78
2023-04-19T22:36:31.215Z,5.88
2023-04-19T22:38:58.178Z,5.78
2023-04-19T22:41:25.173Z,5.00
2023-04-19T22:43:52.393Z,5.03
2023-04-19T22:46:19.288Z,5.68
2023-04-19T22:48:48.352Z,5.63
2023-04-19T22:51:18.353Z,5.40
2023-04-19T22:53:45.567Z,5.88
2023-04-19T22:56:12.695Z,5.82
2023-04-19T22:58:39.663Z,5.60
2023-04-19T23:01:06.796Z,4.93
2023-04-19T23:03:34.411Z,5.60
2023-04-19T23:06:03.486Z,5.25
2023-04-19T23:08:35.897Z,5.90
2023-04-19T23:11:02.824Z,5.45
2023-04-19T23:13:30.152Z,5.63
2023-04-19T23:15:57.117Z,5.93
2023-04-19T23:18:24.277Z,5.20
2023-04-19T23:20:51.322Z,5.47
2023-04-19T23:23:20.361Z,5.53
2023-04-19T23:25:47.267Z,5.32
2023-04-19T23:28:14.147Z,5.50
2023-04-19T23:30:41.094Z,5.18
2023-04-19T23:33:08.125Z,5.10
2023-04-19T23:35:35.389Z,5.50
2023-04-19T23:38:02.248Z,5.03
2023-04-19T23:40:29.293Z,4.88
2023-04-19T23:42:56.427Z,5.50
2023-04-19T23:45:23.603Z,5.13
2023-04-19T23:47:50.731Z,5.05
2023-04-19T23:50:17.707Z,5.15
2023-04-19T23:52:44.600Z,4.78
2023-04-19T23:55:12.441Z,4.35
2023-04-19T23:57:39.740Z,4.75
